createdAt,value
2022-12-24T00:00:10.773Z,5.30
2022-12-24T00:02:37.752Z,5.40
2022-12-24T00:05:05.153Z,5.40
2022-12-24T00:07:32.004Z,5.40
2022-12-24T00:09:58.746Z,5.40
2022-12-24T00:12:25.667Z,5.40
2022-12-24T00:14:52.348Z,5.40
2022-12-24T00:17:19.323Z,5.40
2022-12-24T00:19:46.065Z,5.40
2022-12-24T00:22:12.801Z,5.40
2022-12-24T00:24:39.529Z,5.40
2022-12-24T00:27:06.367Z,5.40
2022-12-24T00:29:33.883Z,5.40
2022-12-24T00:32:00.773Z,5.30
2022-12-24T00:34:27.685Z,5.40
2022-12-24T00:36:54.653Z,5.40
2022-12-24T00:39:21.480Z,5.30
2022-12-24T00:41:48.150Z,5.40
2022-12-24T00:44:14.903Z,5.40
2022-12-24T00:46:42.139Z,5.40
2022-12-24T00:49:11.424Z,5.40
2022-12-24T00:51:38.606Z,5.40
2022-12-24T00:54:06.045Z,5.40
2022-12-24T00:56:33.191Z,5.40
2022-12-24T00:58:59.849Z,5.40
2022-12-24T01:01:27.639Z,5.40
2022-12-24T01:04:14.081Z,5.40
2022-12-24T01:06:40.854Z,5.40
2022-12-24T01:09:07.562Z,5.40
2022-12-24T01:11:34.269Z,5.40
2022-12-24T01:14:00.906Z,5.40
2022-12-24T01:16:27.716Z,5.40
2022-12-24T01:18:54.497Z,5.40
2022-12-24T01:21:21.187Z,5.40
2022-12-24T01:23:47.840Z,5.40
2022-12-24T01:26:14.691Z,5.40
2022-12-24T01:28:41.648Z,5.40
2022-12-24T01:31:18.620Z,5.40
2022-12-24T01:33:46.953Z,5.40
2022-12-24T01:36:14.328Z,5.50
2022-12-24T01:38:41.715Z,5.50
2022-12-24T01:41:33.400Z,5.40
2022-12-24T01:44:17.275Z,5.40
2022-12-24T01:46:44.818Z,5.40
2022-12-24T01:49:14.547Z,5.40
2022-12-24T01:51:56.105Z,5.40
2022-12-24T01:54:38.711Z,5.40
2022-12-24T01:57:10.884Z,5.40
2022-12-24T01:59:42.340Z,5.40
2022-12-24T02:02:09.390Z,5.40
2022-12-24T02:05:02.247Z,5.40
2022-12-24T02:07:29.461Z,5.40
2022-12-24T02:09:59.238Z,5.40
2022-12-24T02:12:32.146Z,5.40
2022-12-24T02:14:59.565Z,5.40
2022-12-24T02:17:29.166Z,5.40
2022-12-24T02:20:31.413Z,5.40
2022-12-24T02:23:34.926Z,5.30
2022-12-24T02:26:04.613Z,5.40
2022-12-24T02:29:08.649Z,5.40
2022-12-24T02:31:47.167Z,5.40
2022-12-24T02:34:35.746Z,5.40
2022-12-24T02:37:31.399Z,5.40
2022-12-24T02:40:16.753Z,5.30
2022-12-24T02:42:50.125Z,5.30
2022-12-24T02:45:23.681Z,5.40
2022-12-24T02:47:51.856Z,5.30
2022-12-24T02:50:19.478Z,5.40
2022-12-24T02:52:47.651Z,5.40
2022-12-24T02:55:44.581Z,5.30
2022-12-24T02:58:28.130Z,5.30
2022-12-24T03:00:57.688Z,5.40
2022-12-24T03:03:35.244Z,5.40
2022-12-24T03:06:14.749Z,5.40
2022-12-24T03:08:53.379Z,5.40
2022-12-24T03:11:20.542Z,5.30
2022-12-24T03:13:48.820Z,5.40
2022-12-24T03:16:19.387Z,5.40
2022-12-24T03:18:48.690Z,5.40
2022-12-24T03:21:21.585Z,5.30
2022-12-24T03:23:48.348Z,5.40
2022-12-24T03:26:18.786Z,5.40
2022-12-24T03:28:46.586Z,5.40
2022-12-24T03:31:13.994Z,5.30
2022-12-24T03:33:41.284Z,5.30
2022-12-24T03:36:09.185Z,5.30
2022-12-24T03:38:36.030Z,5.30
2022-12-24T03:41:03.705Z,5.20
2022-12-24T03:43:30.570Z,5.30
2022-12-24T03:45:57.397Z,5.30
2022-12-24T03:48:32.169Z,5.30
2022-12-24T03:50:59.358Z,5.30
2022-12-24T03:53:26.041Z,5.30
2022-12-24T03:55:52.682Z,5.30
2022-12-24T03:58:19.403Z,5.20
2022-12-24T04:00:46.097Z,5.20
2022-12-24T04:03:12.872Z,5.20
2022-12-24T04:05:39.565Z,5.20
2022-12-24T04:08:06.359Z,5.20
2022-12-24T04:10:33.050Z,5.20
2022-12-24T04:12:59.735Z,5.20
2022-12-24T04:15:26.507Z,5.20
2022-12-24T04:17:53.182Z,5.20
2022-12-24T04:20:20.036Z,5.10
2022-12-24T04:22:46.685Z,5.10
2022-12-24T04:25:13.518Z,5.10
2022-12-24T04:27:40.160Z,5.10
2022-12-24T04:30:07.512Z,5.10
2022-12-24T04:32:34.208Z,5.10
2022-12-24T04:35:01.010Z,5.10
2022-12-24T04:37:28.406Z,5.00
2022-12-24T04:39:55.096Z,5.00
2022-12-24T04:42:21.749Z,5.00
2022-12-24T04:44:48.478Z,5.00
2022-12-24T04:47:15.146Z,5.00
2022-12-24T04:49:41.814Z,5.10
2022-12-24T04:52:08.491Z,5.00
2022-12-24T04:54:35.253Z,5.00
2022-12-24T04:57:01.987Z,5.10
2022-12-24T04:59:28.645Z,5.00
2022-12-24T05:01:55.486Z,5.00
2022-12-24T05:04:22.225Z,5.00
2022-12-24T05:06:48.911Z,5.00
2022-12-24T05:09:15.597Z,5.10
2022-12-24T05:11:42.291Z,5.00
2022-12-24T05:14:09.085Z,5.00
2022-12-24T05:16:35.876Z,5.00
2022-12-24T05:19:02.672Z,5.00
2022-12-24T05:21:29.526Z,5.00
2022-12-24T05:24:15.307Z,5.00
2022-12-24T05:26:44.485Z,5.00
2022-12-24T05:29:15.058Z,5.00
2022-12-24T05:31:43.467Z,5.00
2022-12-24T05:34:10.928Z,5.00
2022-12-24T05:36:38.306Z,5.00
2022-12-24T05:39:09.768Z,5.00
2022-12-24T05:41:40.435Z,5.00
2022-12-24T05:44:07.234Z,5.00
2022-12-24T05:46:33.987Z,5.00
2022-12-24T05:49:00.720Z,5.00
2022-12-24T05:51:27.397Z,5.00
2022-12-24T05:53:54.098Z,5.00
2022-12-24T05:56:25.309Z,5.00
2022-12-24T05:58:53.733Z,5.00
2022-12-24T06:01:22.468Z,5.00
2022-12-24T06:03:49.975Z,4.90
2022-12-24T06:06:27.986Z,5.00
2022-12-24T06:08:55.867Z,4.90
2022-12-24T06:11:25.183Z,5.00
2022-12-24T06:13:52.835Z,4.90
2022-12-24T06:16:20.459Z,4.90
2022-12-24T06:18:47.401Z,4.90
2022-12-24T06:21:14.711Z,4.90
2022-12-24T06:23:43.609Z,4.90
2022-12-24T06:26:14.439Z,4.90
2022-12-24T06:28:41.441Z,4.90
2022-12-24T06:31:15.748Z,4.90
2022-12-24T06:33:42.827Z,4.80
2022-12-24T06:36:17.464Z,4.80
2022-12-24T06:38:45.756Z,4.80
2022-12-24T06:41:12.593Z,4.80
2022-12-24T06:43:40.134Z,4.80
2022-12-24T06:46:06.983Z,4.80
2022-12-24T06:48:33.663Z,4.80
2022-12-24T06:51:03.318Z,4.80
2022-12-24T06:53:30.809Z,4.80
2022-12-24T06:56:09.547Z,4.80
2022-12-24T06:58:36.505Z,4.80
2022-12-24T07:01:04.750Z,4.80
2022-12-24T07:03:32.334Z,4.80
2022-12-24T07:05:59.385Z,4.80
2022-12-24T07:08:26.279Z,4.80
2022-12-24T07:10:54.530Z,4.80
2022-12-24T07:13:22.030Z,4.90
2022-12-24T07:15:58.121Z,4.80
2022-12-24T07:18:25.155Z,4.80
2022-12-24T07:20:51.874Z,4.90
2022-12-24T07:23:18.671Z,4.80
2022-12-24T07:25:45.390Z,4.90
2022-12-24T07:28:12.353Z,4.80
2022-12-24T07:30:39.115Z,4.90
2022-12-24T07:33:05.911Z,4.90
2022-12-24T07:35:32.618Z,4.90
2022-12-24T07:37:59.265Z,4.90
2022-12-24T07:40:26.019Z,4.90
2022-12-24T07:42:52.661Z,4.90
2022-12-24T07:45:19.491Z,4.90
2022-12-24T07:47:46.191Z,4.90
2022-12-24T07:50:12.860Z,4.90
2022-12-24T07:52:39.593Z,4.90
2022-12-24T07:55:06.520Z,4.80
2022-12-24T07:57:33.174Z,4.80
2022-12-24T07:59:59.874Z,4.90
2022-12-24T08:02:26.711Z,4.90
2022-12-24T08:04:53.462Z,4.90
2022-12-24T08:07:20.325Z,4.90
2022-12-24T08:09:46.995Z,4.90
2022-12-24T08:12:13.677Z,4.90
2022-12-24T08:14:40.464Z,5.00
2022-12-24T08:17:07.161Z,5.00
2022-12-24T08:19:33.841Z,5.00
2022-12-24T08:22:00.524Z,5.00
2022-12-24T08:24:27.219Z,5.00
2022-12-24T08:26:53.856Z,5.00
2022-12-24T08:29:20.703Z,5.00
2022-12-24T08:31:47.418Z,5.00
2022-12-24T08:34:14.077Z,5.00
2022-12-24T08:36:41.025Z,5.00
2022-12-24T08:39:08.879Z,5.00
2022-12-24T08:41:35.718Z,5.00
2022-12-24T08:44:02.484Z,5.00
2022-12-24T08:46:29.352Z,5.10
2022-12-24T08:48:58.612Z,5.10
2022-12-24T08:51:25.422Z,5.10
2022-12-24T09:04:44.944Z,5.20
2022-12-24T09:07:11.970Z,5.20
2022-12-24T09:09:39.119Z,5.30
2022-12-24T09:12:07.049Z,5.20
2022-12-24T09:14:34.241Z,5.20
2022-12-24T09:17:01.026Z,5.20
2022-12-24T09:19:28.513Z,5.20
2022-12-24T09:21:55.215Z,5.20
2022-12-24T09:24:22.173Z,5.10
2022-12-24T09:26:55.507Z,5.20
2022-12-24T09:29:24.094Z,5.20
2022-12-24T09:31:50.910Z,5.20
2022-12-24T09:34:17.686Z,5.20
2022-12-24T09:36:44.445Z,5.20
2022-12-24T09:39:11.145Z,5.20
2022-12-24T09:41:43.649Z,5.20
2022-12-24T09:44:37.929Z,5.20
2022-12-24T09:47:26.370Z,5.20
2022-12-24T09:49:55.883Z,5.20
2022-12-24T09:52:45.366Z,5.30
2022-12-24T09:55:33.486Z,5.30
2022-12-24T09:58:02.365Z,5.30
2022-12-24T10:00:33.299Z,5.30
2022-12-24T10:03:00.004Z,5.30
2022-12-24T10:05:41.434Z,5.30
2022-12-24T10:08:39.241Z,5.30
2022-12-24T10:11:53.791Z,5.30
2022-12-24T10:14:20.524Z,5.30
2022-12-24T10:16:52.091Z,5.30
2022-12-24T10:19:27.897Z,5.30
2022-12-24T10:21:57.388Z,5.30
2022-12-24T10:24:37.981Z,5.30
2022-12-24T10:27:14.779Z,5.30
2022-12-24T10:29:46.345Z,5.40
2022-12-24T10:32:28.604Z,5.40
2022-12-24T10:35:06.281Z,5.40
2022-12-24T10:37:32.909Z,5.40
2022-12-24T10:40:00.895Z,5.40
2022-12-24T10:42:50.986Z,5.50
2022-12-24T10:45:21.607Z,5.50
2022-12-24T10:47:52.734Z,5.50
2022-12-24T10:50:31.025Z,5.50
2022-12-24T10:53:14.573Z,5.50
2022-12-24T10:55:41.961Z,5.60
2022-12-24T10:58:16.583Z,5.60
2022-12-24T11:00:51.076Z,5.60
2022-12-24T11:03:24.396Z,5.70
2022-12-24T11:06:11.417Z,5.60
2022-12-24T11:08:41.321Z,5.60
2022-12-24T11:11:14.124Z,5.70
2022-12-24T11:13:57.021Z,5.70
2022-12-24T11:16:35.601Z,5.70
2022-12-24T11:19:05.414Z,5.80
2022-12-24T11:21:40.040Z,5.80
2022-12-24T11:24:27.591Z,5.80
2022-12-24T11:26:54.916Z,5.80
2022-12-24T11:29:22.662Z,5.80
2022-12-24T11:31:52.507Z,5.80
2022-12-24T11:34:29.705Z,5.80
2022-12-24T11:37:23.905Z,5.90
2022-12-24T11:40:00.597Z,5.90
2022-12-24T11:42:40.716Z,5.90
2022-12-24T11:45:29.410Z,6.00
2022-12-24T11:47:57.326Z,6.10
2022-12-24T11:50:30.347Z,6.10
2022-12-24T11:53:00.877Z,6.20
2022-12-24T11:56:05.019Z,6.20
2022-12-24T11:58:48.762Z,6.10
2022-12-24T12:01:36.866Z,6.20
2022-12-24T12:04:15.165Z,6.20
2022-12-24T12:06:47.693Z,6.30
2022-12-24T12:09:50.435Z,6.30
2022-12-24T12:12:24.190Z,6.30
2022-12-24T12:14:58.665Z,6.30
2022-12-24T12:18:04.292Z,6.40
2022-12-24T12:20:40.464Z,6.40
2022-12-24T12:23:15.728Z,6.40
2022-12-24T12:25:52.437Z,6.40
2022-12-24T12:28:42.733Z,6.50
2022-12-24T12:31:15.801Z,6.50
2022-12-24T12:34:11.903Z,6.50
2022-12-24T12:36:52.826Z,6.60
2022-12-24T12:39:19.694Z,6.60
2022-12-24T12:42:02.705Z,6.60
2022-12-24T12:45:07.906Z,6.60
2022-12-24T12:47:49.801Z,6.70
2022-12-24T12:50:31.089Z,6.70
2022-12-24T12:53:23.575Z,6.70
2022-12-24T12:55:59.992Z,6.80
2022-12-24T12:58:43.786Z,6.80
2022-12-24T13:01:26.042Z,6.80
2022-12-24T13:04:23.234Z,6.80
2022-12-24T13:07:04.726Z,6.80
2022-12-24T13:09:49.142Z,6.90
2022-12-24T13:12:52.570Z,6.90
2022-12-24T13:15:40.604Z,6.90
2022-12-24T13:18:34.503Z,6.90
2022-12-24T13:21:01.407Z,7.00
2022-12-24T13:23:28.454Z,6.90
2022-12-24T13:25:57.797Z,6.90
2022-12-24T13:28:24.557Z,7.00
2022-12-24T13:31:17.207Z,6.90
2022-12-24T13:33:43.910Z,6.90
2022-12-24T13:36:18.581Z,7.00
2022-12-24T13:38:50.691Z,7.00
2022-12-24T13:41:41.321Z,7.00
2022-12-24T13:44:13.107Z,7.00
2022-12-24T13:46:48.347Z,7.10
2022-12-24T13:49:42.069Z,7.10
2022-12-24T13:52:11.472Z,7.00
2022-12-24T13:54:46.800Z,7.00
2022-12-24T13:57:38.853Z,7.00
2022-12-24T14:00:20.687Z,7.10
2022-12-24T14:02:53.670Z,7.00
2022-12-24T14:05:44.363Z,7.10
2022-12-24T14:08:12.564Z,7.10
2022-12-24T14:10:46.214Z,7.10
2022-12-24T14:13:37.744Z,7.10
2022-12-24T14:16:10.049Z,7.00
2022-12-24T14:18:42.423Z,7.00
2022-12-24T14:21:23.475Z,7.00
2022-12-24T14:24:00.763Z,6.90
2022-12-24T14:26:32.207Z,6.90
2022-12-24T14:29:16.478Z,6.80
2022-12-24T14:31:53.528Z,6.80
2022-12-24T14:34:20.381Z,6.70
2022-12-24T14:36:48.755Z,6.70
2022-12-24T14:39:32.925Z,6.60
2022-12-24T14:42:14.609Z,6.50
2022-12-24T14:44:45.452Z,6.50
2022-12-24T14:47:41.561Z,6.40
2022-12-24T14:50:37.581Z,6.40
2022-12-24T14:53:26.185Z,6.30
2022-12-24T14:55:52.930Z,6.30
2022-12-24T14:58:24.723Z,6.20
2022-12-24T15:00:53.578Z,6.20
2022-12-24T15:03:24.284Z,6.20
2022-12-24T15:05:57.257Z,6.20
2022-12-24T15:08:32.110Z,6.20
2022-12-24T15:11:05.877Z,6.20
2022-12-24T15:13:39.477Z,6.10
2022-12-24T15:16:10.669Z,6.10
2022-12-24T15:18:43.121Z,6.10
2022-12-24T15:21:20.115Z,6.10
2022-12-24T15:23:50.085Z,6.10
2022-12-24T15:26:23.010Z,6.00
2022-12-24T15:28:50.650Z,6.00
2022-12-24T15:31:20.435Z,6.00
2022-12-24T15:33:48.646Z,5.90
2022-12-24T15:36:17.912Z,5.90
2022-12-24T15:38:47.386Z,5.90
2022-12-24T15:41:23.971Z,5.90
2022-12-24T15:43:52.785Z,5.90
2022-12-24T15:46:25.846Z,5.90
2022-12-24T15:48:55.209Z,6.00
2022-12-24T15:51:30.265Z,6.00
2022-12-24T15:54:04.454Z,5.90
2022-12-24T15:56:44.057Z,5.90
2022-12-24T15:59:19.801Z,5.80
2022-12-24T16:01:48.473Z,5.80
2022-12-24T16:04:26.742Z,5.60
2022-12-24T16:07:02.263Z,5.50
2022-12-24T16:09:45.703Z,5.50
2022-12-24T16:12:22.076Z,5.50
2022-12-24T16:14:56.093Z,5.40
2022-12-24T16:17:26.285Z,5.40
2022-12-24T16:19:57.084Z,5.30
2022-12-24T16:22:35.008Z,5.40
2022-12-24T16:25:18.573Z,5.40
2022-12-24T16:27:45.232Z,5.40
2022-12-24T16:30:12.651Z,5.50
2022-12-24T16:32:41.994Z,5.50
2022-12-24T16:35:26.030Z,5.50
2022-12-24T16:37:53.675Z,5.40
2022-12-24T16:40:26.510Z,5.40
2022-12-24T16:43:13.190Z,5.40
2022-12-24T16:45:40.029Z,5.30
2022-12-24T16:48:08.228Z,5.30
2022-12-24T16:50:35.760Z,5.20
2022-12-24T16:53:02.403Z,5.20
2022-12-24T16:55:29.247Z,5.10
2022-12-24T16:57:55.992Z,5.00
2022-12-24T17:00:25.565Z,5.00
2022-12-24T17:02:53.156Z,4.90
2022-12-24T17:05:23.603Z,4.80
2022-12-24T17:07:51.208Z,4.70
2022-12-24T17:10:18.080Z,4.60
2022-12-24T17:12:44.776Z,4.50
2022-12-24T17:15:11.853Z,4.40
2022-12-24T17:17:38.586Z,4.40
2022-12-24T17:20:06.189Z,4.30
2022-12-24T17:22:32.997Z,4.30
2022-12-24T17:24:59.724Z,4.20
2022-12-24T17:27:26.511Z,4.10
2022-12-24T17:29:53.371Z,4.10
2022-12-24T17:32:20.171Z,4.10
2022-12-24T17:34:46.935Z,4.00
2022-12-24T17:37:13.718Z,3.90
2022-12-24T17:39:40.463Z,3.90
2022-12-24T17:42:07.317Z,3.80
2022-12-24T17:44:34.033Z,3.80
2022-12-24T17:47:01.795Z,3.70
2022-12-24T17:49:28.789Z,3.70
2022-12-24T17:51:55.579Z,3.70
2022-12-24T17:54:22.295Z,3.70
2022-12-24T17:56:49.077Z,3.60
2022-12-24T17:59:15.926Z,3.60
2022-12-24T18:01:42.705Z,3.60
2022-12-24T18:04:11.122Z,3.50
2022-12-24T18:06:44.145Z,3.50
2022-12-24T18:09:14.111Z,3.40
2022-12-24T18:11:41.100Z,3.40
2022-12-24T18:14:08.163Z,3.40
2022-12-24T18:16:38.016Z,3.40
2022-12-24T18:19:10.269Z,3.40
2022-12-24T18:21:37.105Z,3.40
2022-12-24T18:24:04.666Z,3.40
2022-12-24T18:26:33.321Z,3.40
2022-12-24T18:29:01.765Z,3.50
2022-12-24T18:31:30.044Z,3.50
2022-12-24T18:33:57.116Z,3.50
2022-12-24T18:36:24.358Z,3.50
2022-12-24T18:38:51.814Z,3.50
2022-12-24T18:41:21.997Z,3.50
2022-12-24T18:43:49.260Z,3.60
2022-12-24T18:46:21.528Z,3.60
2022-12-24T18:48:48.526Z,3.70
2022-12-24T18:51:16.339Z,3.70
2022-12-24T18:53:43.140Z,3.70
2022-12-24T18:56:17.233Z,3.80
2022-12-24T18:58:44.723Z,3.80
2022-12-24T19:01:20.709Z,3.80
2022-12-24T19:03:49.154Z,3.80
2022-12-24T19:06:17.190Z,3.80
2022-12-24T19:08:57.102Z,3.80
2022-12-24T19:11:26.085Z,3.80
2022-12-24T19:13:52.998Z,3.80
2022-12-24T19:16:19.987Z,3.90
2022-12-24T19:18:47.223Z,3.90
2022-12-24T19:21:15.772Z,3.90
2022-12-24T19:23:42.819Z,3.90
2022-12-24T19:26:14.068Z,4.00
2022-12-24T19:28:41.139Z,4.10
2022-12-24T19:31:10.558Z,4.20
2022-12-24T19:33:42.359Z,4.30
2022-12-24T19:36:18.859Z,4.30
2022-12-24T19:38:46.200Z,4.30
2022-12-24T19:41:15.974Z,4.30
2022-12-24T19:43:45.849Z,4.40
2022-12-24T19:46:14.772Z,4.30
2022-12-24T19:48:42.767Z,4.30
2022-12-24T19:51:11.868Z,4.30
2022-12-24T19:53:39.415Z,4.30
2022-12-24T19:56:06.757Z,4.20
2022-12-24T19:58:33.596Z,4.40
2022-12-24T20:01:15.553Z,4.50
2022-12-24T20:03:43.327Z,4.50
2022-12-24T20:06:10.297Z,4.40
2022-12-24T20:08:38.192Z,4.40
2022-12-24T20:11:10.934Z,4.30
2022-12-24T20:13:39.881Z,4.30
2022-12-24T20:16:07.714Z,4.30
2022-12-24T20:18:35.047Z,4.20
2022-12-24T20:21:03.993Z,4.20
2022-12-24T20:23:30.837Z,4.20
2022-12-24T20:25:59.392Z,4.20
2022-12-24T20:28:31.013Z,4.30
2022-12-24T20:30:58.035Z,4.30
2022-12-24T20:33:24.952Z,4.40
2022-12-24T20:35:51.929Z,4.40
2022-12-24T20:38:19.141Z,4.40
2022-12-24T20:40:46.595Z,4.50
2022-12-24T20:43:13.559Z,4.50
2022-12-24T20:45:41.126Z,4.50
2022-12-24T20:48:08.006Z,4.50
2022-12-24T20:50:34.657Z,4.50
2022-12-24T20:53:01.354Z,4.50
2022-12-24T20:55:28.244Z,4.50
2022-12-24T20:57:54.918Z,4.60
2022-12-24T21:00:22.135Z,4.60
2022-12-24T21:02:48.875Z,4.70
2022-12-24T21:05:15.737Z,4.70
2022-12-24T21:07:43.651Z,4.70
2022-12-24T21:10:12.281Z,4.70
2022-12-24T21:12:58.806Z,4.80
2022-12-24T21:15:28.167Z,4.80
2022-12-24T21:17:55.709Z,4.90
2022-12-24T21:20:24.941Z,4.90
2022-12-24T21:22:55.885Z,4.90
2022-12-24T21:25:26.006Z,4.90
2022-12-24T21:27:55.420Z,5.00
2022-12-24T21:30:22.953Z,5.10
2022-12-24T21:32:51.012Z,5.10
2022-12-24T21:35:18.175Z,5.10
2022-12-24T21:37:44.846Z,5.10
2022-12-24T21:40:12.105Z,5.20
2022-12-24T21:42:38.883Z,5.30
2022-12-24T21:45:06.572Z,5.30
2022-12-24T21:47:35.083Z,5.40
2022-12-24T21:50:20.149Z,5.50
2022-12-24T21:52:46.863Z,5.50
2022-12-24T21:55:13.674Z,5.60
2022-12-24T21:57:55.326Z,5.60
2022-12-24T22:00:22.128Z,5.70
2022-12-24T22:02:54.494Z,5.80
2022-12-24T22:05:22.253Z,6.00
2022-12-24T22:08:07.491Z,6.00
2022-12-24T22:10:52.949Z,6.00
2022-12-24T22:13:20.674Z,6.00
2022-12-24T22:15:50.227Z,6.10
2022-12-24T22:18:18.950Z,6.10
2022-12-24T22:20:46.832Z,6.00
2022-12-24T22:23:15.032Z,6.00
2022-12-24T22:25:43.888Z,6.10
2022-12-24T22:28:11.450Z,6.20
2022-12-24T22:30:40.225Z,6.20
2022-12-24T22:33:08.060Z,6.20
2022-12-24T22:35:40.984Z,6.30
2022-12-24T22:38:09.238Z,6.40
2022-12-24T22:40:38.900Z,6.40
2022-12-24T22:43:05.681Z,6.40
2022-12-24T22:45:32.356Z,6.40
2022-12-24T22:47:59.007Z,6.50
2022-12-24T22:50:25.873Z,6.50
2022-12-24T22:52:53.830Z,6.60
2022-12-24T22:55:20.903Z,6.50
2022-12-24T22:57:47.657Z,6.50
2022-12-24T23:00:37.348Z,6.60
2022-12-24T23:03:04.977Z,6.50
2022-12-24T23:05:31.937Z,6.50
2022-12-24T23:07:58.751Z,6.50
2022-12-24T23:10:25.426Z,6.50
2022-12-24T23:13:14.844Z,6.50
2022-12-24T23:15:42.391Z,6.50
2022-12-24T23:18:09.482Z,6.60
2022-12-24T23:20:42.223Z,6.50
2022-12-24T23:23:09.217Z,6.50
2022-12-24T23:25:35.907Z,6.50
2022-12-24T23:28:02.743Z,6.50
2022-12-24T23:30:29.475Z,6.50
2022-12-24T23:32:56.106Z,6.50
2022-12-24T23:35:22.870Z,6.50
2022-12-24T23:37:49.587Z,6.50
2022-12-24T23:40:16.476Z,6.50
2022-12-24T23:42:43.227Z,6.50
2022-12-24T23:45:10.431Z,6.60
2022-12-24T23:47:37.148Z,6.60
2022-12-24T23:50:04.406Z,6.60
2022-12-24T23:52:31.104Z,6.50
2022-12-24T23:54:57.773Z,6.40
2022-12-24T23:57:24.473Z,6.40
2022-12-24T23:59:51.099Z,6.30
